Bryce Canyon Airport Bryce Canyon US
ICAO: KBCE
IATA: BCE
Category: Medium
Scheduled Services: No

Elevation: 7590 ft
TransAlt. 18000 ft.

Airport Communications:
ASOS:135.475
CEDAR CITY RDO:122.2
CTAF/UNICOM:122.8

KBCE Zoom In..

Runways:

(A) RW 03 length 7395 ft width 75 ft
---- / hdg 33

(B) RW 21 length 7395 ft width 75 ft
---- / hdg 213

Location; KBCE
Day. 19 / Time. 20.39 Zulu
* Altimeter: 30.40
* Temperature: 24° c. 75.2°f.
* Wind from: 030° Speed 05 kn.
Dewpoint: 09° c.
Visibility: 10 Statute Miles.
Clouds: Scattered 9000 ft.
Clouds: Overcast 11000 ft.

KBCE 192039Z AUTO 03005KT 10SM SCT090 OVC110 24/09 A3040 RMK AO2 LTG DSNT ALQDS RAB01E32 P0000 T02390094


Wind From 030°
Speed 05 kn.

 
 
jpsmedia.com for Web Design worldairports.se 2018   terms of use